sensor_id;sensor_type;location;lat;lon;timestamp;P1;durP1;ratioP1;P2;durP2;ratioP2
18459;SDS011;9359;50.932;6.924;2024-03-22T00:00:39;41.90;;;23.27;;
18459;SDS011;9359;50.932;6.924;2024-03-22T00:03:07;40.97;;;22.70;;
18459;SDS011;9359;50.932;6.924;2024-03-22T00:05:36;47.63;;;24.27;;
18459;SDS011;9359;50.932;6.924;2024-03-22T00:08:03;48.57;;;24.43;;
18459;SDS011;9359;50.932;6.924;2024-03-22T00:10:33;47.93;;;24.73;;
18459;SDS011;9359;50.932;6.924;2024-03-22T00:13:00;43.80;;;25.53;;
18459;SDS011;9359;50.932;6.924;2024-03-22T00:15:30;45.83;;;25.30;;
18459;SDS011;9359;50.932;6.924;2024-03-22T00:17:58;54.97;;;26.70;;
18459;SDS011;9359;50.932;6.924;2024-03-22T00:20:28;47.20;;;24.70;;
18459;SDS011;9359;50.932;6.924;2024-03-22T00:22:56;50.80;;;27.77;;
18459;SDS011;9359;50.932;6.924;2024-03-22T00:25:25;53.50;;;26.47;;
18459;SDS011;9359;50.932;6.924;2024-03-22T00:27:55;48.73;;;25.63;;
18459;SDS011;9359;50.932;6.924;2024-03-22T00:30:24;53.50;;;26.30;;
18459;SDS011;9359;50.932;6.924;2024-03-22T00:32:54;45.63;;;25.83;;
18459;SDS011;9359;50.932;6.924;2024-03-22T00:35:23;49.77;;;25.97;;
18459;SDS011;9359;50.932;6.924;2024-03-22T00:37:50;51.07;;;27.70;;
18459;SDS011;9359;50.932;6.924;2024-03-22T00:40:19;52.20;;;26.43;;
18459;SDS011;9359;50.932;6.924;2024-03-22T00:42:46;43.23;;;25.20;;
18459;SDS011;9359;50.932;6.924;2024-03-22T00:45:15;50.33;;;26.60;;
18459;SDS011;9359;50.932;6.924;2024-03-22T00:47:43;57.80;;;31.30;;
18459;SDS011;9359;50.932;6.924;2024-03-22T00:50:13;68.10;;;33.23;;
18459;SDS011;9359;50.932;6.924;2024-03-22T00:52:41;58.67;;;30.63;;
18459;SDS011;9359;50.932;6.924;2024-03-22T00:55:10;56.70;;;28.67;;
18459;SDS011;9359;50.932;6.924;2024-03-22T00:57:37;63.20;;;30.43;;
18459;SDS011;9359;50.932;6.924;2024-03-22T01:00:06;65.53;;;28.13;;
18459;SDS011;9359;50.932;6.924;2024-03-22T01:02:35;50.23;;;27.93;;
18459;SDS011;9359;50.932;6.924;2024-03-22T01:05:04;59.90;;;28.33;;
18459;SDS011;9359;50.932;6.924;2024-03-22T01:07:33;66.87;;;27.13;;
18459;SDS011;9359;50.932;6.924;2024-03-22T01:10:03;71.17;;;29.10;;
18459;SDS011;9359;50.932;6.924;2024-03-22T01:12:30;72.90;;;29.83;;
18459;SDS011;9359;50.932;6.924;2024-03-22T01:14:59;60.23;;;28.30;;
18459;SDS011;9359;50.932;6.924;2024-03-22T01:17:26;52.97;;;26.83;;
18459;SDS011;9359;50.932;6.924;2024-03-22T01:19:55;53.23;;;27.37;;
18459;SDS011;9359;50.932;6.924;2024-03-22T01:22:23;48.80;;;24.27;;
18459;SDS011;9359;50.932;6.924;2024-03-22T01:24:53;51.03;;;25.80;;
18459;SDS011;9359;50.932;6.924;2024-03-22T01:27:20;50.20;;;26.00;;
18459;SDS011;9359;50.932;6.924;2024-03-22T01:29:49;58.60;;;25.07;;
18459;SDS011;9359;50.932;6.924;2024-03-22T01:32:17;60.27;;;28.70;;
18459;SDS011;9359;50.932;6.924;2024-03-22T01:34:46;67.57;;;29.97;;
18459;SDS011;9359;50.932;6.924;2024-03-22T01:37:13;61.20;;;27.97;;
18459;SDS011;9359;50.932;6.924;2024-03-22T01:39:42;63.80;;;29.00;;
18459;SDS011;9359;50.932;6.924;2024-03-22T01:42:11;71.93;;;28.70;;
18459;SDS011;9359;50.932;6.924;2024-03-22T01:44:40;64.10;;;29.10;;
18459;SDS011;9359;50.932;6.924;2024-03-22T01:47:08;60.03;;;27.77;;
18459;SDS011;9359;50.932;6.924;2024-03-22T01:49:37;55.67;;;27.53;;
18459;SDS011;9359;50.932;6.924;2024-03-22T01:52:05;60.07;;;27.43;;
18459;SDS011;9359;50.932;6.924;2024-03-22T01:54:34;57.20;;;26.43;;
18459;SDS011;9359;50.932;6.924;2024-03-22T01:57:01;50.43;;;23.77;;
18459;SDS011;9359;50.932;6.924;2024-03-22T01:59:32;56.90;;;25.60;;
18459;SDS011;9359;50.932;6.924;2024-03-22T02:02:00;53.83;;;25.23;;
18459;SDS011;9359;50.932;6.924;2024-03-22T02:04:29;52.97;;;25.83;;
18459;SDS011;9359;50.932;6.924;2024-03-22T02:06:57;63.63;;;28.63;;
18459;SDS011;9359;50.932;6.924;2024-03-22T02:09:26;59.57;;;27.10;;
18459;SDS011;9359;50.932;6.924;2024-03-22T02:11:53;61.30;;;28.67;;
18459;SDS011;9359;50.932;6.924;2024-03-22T02:14:22;50.73;;;26.10;;
18459;SDS011;9359;50.932;6.924;2024-03-22T02:16:52;54.23;;;26.07;;
18459;SDS011;9359;50.932;6.924;2024-03-22T02:19:21;51.67;;;24.63;;
18459;SDS011;9359;50.932;6.924;2024-03-22T02:21:48;52.47;;;27.13;;
18459;SDS011;9359;50.932;6.924;2024-03-22T02:24:21;60.43;;;27.80;;
18459;SDS011;9359;50.932;6.924;2024-03-22T02:26:49;52.70;;;25.10;;
18459;SDS011;9359;50.932;6.924;2024-03-22T02:29:17;65.23;;;29.03;;
18459;SDS011;9359;50.932;6.924;2024-03-22T02:31:45;65.23;;;27.00;;
18459;SDS011;9359;50.932;6.924;2024-03-22T02:34:15;62.67;;;27.50;;
18459;SDS011;9359;50.932;6.924;2024-03-22T02:36:43;60.27;;;27.60;;
18459;SDS011;9359;50.932;6.924;2024-03-22T02:39:11;52.23;;;24.57;;
18459;SDS011;9359;50.932;6.924;2024-03-22T02:41:40;49.33;;;26.33;;
18459;SDS011;9359;50.932;6.924;2024-03-22T02:44:09;63.77;;;28.13;;
18459;SDS011;9359;50.932;6.924;2024-03-22T02:46:37;62.13;;;26.93;;
18459;SDS011;9359;50.932;6.924;2024-03-22T02:49:06;49.67;;;23.57;;
18459;SDS011;9359;50.932;6.924;2024-03-22T02:51:33;63.23;;;27.10;;
18459;SDS011;9359;50.932;6.924;2024-03-22T02:54:02;53.47;;;26.17;;
18459;SDS011;9359;50.932;6.924;2024-03-22T02:56:30;56.47;;;26.27;;
18459;SDS011;9359;50.932;6.924;2024-03-22T02:59:00;54.50;;;25.97;;
18459;SDS011;9359;50.932;6.924;2024-03-22T03:01:28;56.57;;;27.30;;
18459;SDS011;9359;50.932;6.924;2024-03-22T03:03:56;60.03;;;28.23;;
18459;SDS011;9359;50.932;6.924;2024-03-22T03:06:24;52.73;;;25.57;;
18459;SDS011;9359;50.932;6.924;2024-03-22T03:08:53;51.43;;;24.40;;
18459;SDS011;9359;50.932;6.924;2024-03-22T03:11:21;50.70;;;24.33;;
18459;SDS011;9359;50.932;6.924;2024-03-22T03:13:49;43.30;;;21.93;;
18459;SDS011;9359;50.932;6.924;2024-03-22T03:16:20;52.53;;;22.57;;
18459;SDS011;9359;50.932;6.924;2024-03-22T03:18:49;60.23;;;22.10;;
18459;SDS011;9359;50.932;6.924;2024-03-22T03:21:17;48.47;;;21.60;;
18459;SDS011;9359;50.932;6.924;2024-03-22T03:23:47;43.87;;;19.93;;
18459;SDS011;9359;50.932;6.924;2024-03-22T03:26:16;51.80;;;23.40;;
18459;SDS011;9359;50.932;6.924;2024-03-22T03:28:46;54.03;;;24.93;;
18459;SDS011;9359;50.932;6.924;2024-03-22T03:31:14;45.80;;;22.80;;
18459;SDS011;9359;50.932;6.924;2024-03-22T03:33:45;41.83;;;19.43;;
18459;SDS011;9359;50.932;6.924;2024-03-22T03:36:13;55.97;;;18.20;;
18459;SDS011;9359;50.932;6.924;2024-03-22T03:38:42;39.47;;;18.23;;
18459;SDS011;9359;50.932;6.924;2024-03-22T03:41:09;35.77;;;17.43;;
18459;SDS011;9359;50.932;6.924;2024-03-22T03:43:38;36.50;;;17.07;;
18459;SDS011;9359;50.932;6.924;2024-03-22T03:46:05;37.40;;;16.67;;
18459;SDS011;9359;50.932;6.924;2024-03-22T03:48:34;29.90;;;14.73;;
18459;SDS011;9359;50.932;6.924;2024-03-22T03:51:03;30.37;;;14.90;;
18459;SDS011;9359;50.932;6.924;2024-03-22T03:53:32;29.83;;;13.87;;
18459;SDS011;9359;50.932;6.924;2024-03-22T03:56:00;27.63;;;12.33;;
18459;SDS011;9359;50.932;6.924;2024-03-22T03:58:28;26.83;;;12.30;;
18459;SDS011;9359;50.932;6.924;2024-03-22T04:00:56;25.93;;;13.23;;
18459;SDS011;9359;50.932;6.924;2024-03-22T04:03:24;31.40;;;12.03;;
18459;SDS011;9359;50.932;6.924;2024-03-22T04:05:56;21.57;;;10.87;;
18459;SDS011;9359;50.932;6.924;2024-03-22T04:08:26;24.40;;;11.23;;
18459;SDS011;9359;50.932;6.924;2024-03-22T04:10:54;30.00;;;12.10;;
18459;SDS011;9359;50.932;6.924;2024-03-22T04:13:24;19.20;;;10.50;;
18459;SDS011;9359;50.932;6.924;2024-03-22T04:15:52;17.73;;;9.00;;
18459;SDS011;9359;50.932;6.924;2024-03-22T04:18:21;20.00;;;8.37;;
18459;SDS011;9359;50.932;6.924;2024-03-22T04:20:53;19.27;;;7.50;;
18459;SDS011;9359;50.932;6.924;2024-03-22T04:23:22;19.50;;;7.87;;
18459;SDS011;9359;50.932;6.924;2024-03-22T04:28:38;17.20;;;8.67;;
18459;SDS011;9359;50.932;6.924;2024-03-22T04:31:05;19.80;;;8.23;;
18459;SDS011;9359;50.932;6.924;2024-03-22T04:33:35;22.37;;;8.67;;
18459;SDS011;9359;50.932;6.924;2024-03-22T04:36:03;15.03;;;7.33;;
18459;SDS011;9359;50.932;6.924;2024-03-22T04:38:35;15.20;;;7.33;;
18459;SDS011;9359;50.932;6.924;2024-03-22T04:41:03;15.17;;;8.70;;
18459;SDS011;9359;50.932;6.924;2024-03-22T04:43:34;16.50;;;7.63;;
18459;SDS011;9359;50.932;6.924;2024-03-22T04:46:03;25.33;;;7.90;;
18459;SDS011;9359;50.932;6.924;2024-03-22T04:48:31;17.50;;;6.77;;
18459;SDS011;9359;50.932;6.924;2024-03-22T04:50:59;18.73;;;6.93;;
18459;SDS011;9359;50.932;6.924;2024-03-22T04:53:28;36.30;;;8.63;;
18459;SDS011;9359;50.932;6.924;2024-03-22T04:55:55;26.00;;;8.20;;
18459;SDS011;9359;50.932;6.924;2024-03-22T04:58:24;18.57;;;7.40;;
18459;SDS011;9359;50.932;6.924;2024-03-22T05:00:57;22.47;;;7.17;;
18459;SDS011;9359;50.932;6.924;2024-03-22T05:03:26;18.60;;;7.43;;
18459;SDS011;9359;50.932;6.924;2024-03-22T05:05:54;18.90;;;7.17;;
18459;SDS011;9359;50.932;6.924;2024-03-22T05:08:24;28.03;;;9.70;;
18459;SDS011;9359;50.932;6.924;2024-03-22T05:10:52;23.83;;;7.67;;
18459;SDS011;9359;50.932;6.924;2024-03-22T05:13:22;20.13;;;8.03;;
18459;SDS011;9359;50.932;6.924;2024-03-22T05:15:50;16.53;;;6.60;;
18459;SDS011;9359;50.932;6.924;2024-03-22T05:18:20;29.07;;;9.23;;
18459;SDS011;9359;50.932;6.924;2024-03-22T05:20:48;18.90;;;8.33;;
18459;SDS011;9359;50.932;6.924;2024-03-22T05:23:17;28.87;;;9.83;;
18459;SDS011;9359;50.932;6.924;2024-03-22T05:25:44;21.60;;;6.73;;
18459;SDS011;9359;50.932;6.924;2024-03-22T05:28:13;30.17;;;8.10;;
18459;SDS011;9359;50.932;6.924;2024-03-22T05:30:41;31.23;;;10.03;;
18459;SDS011;9359;50.932;6.924;2024-03-22T05:33:09;27.80;;;9.80;;
18459;SDS011;9359;50.932;6.924;2024-03-22T05:35:39;28.43;;;8.80;;
18459;SDS011;9359;50.932;6.924;2024-03-22T05:38:08;30.90;;;11.07;;
18459;SDS011;9359;50.932;6.924;2024-03-22T05:40:36;18.40;;;6.87;;
18459;SDS011;9359;50.932;6.924;2024-03-22T05:43:05;20.30;;;8.83;;
18459;SDS011;9359;50.932;6.924;2024-03-22T05:45:32;36.97;;;11.87;;
18459;SDS011;9359;50.932;6.924;2024-03-22T05:48:01;29.70;;;9.23;;
18459;SDS011;9359;50.932;6.924;2024-03-22T05:50:29;25.30;;;10.13;;
18459;SDS011;9359;50.932;6.924;2024-03-22T05:52:59;30.87;;;10.13;;
18459;SDS011;9359;50.932;6.924;2024-03-22T05:55:27;25.50;;;11.03;;
18459;SDS011;9359;50.932;6.924;2024-03-22T05:57:58;39.53;;;9.87;;
18459;SDS011;9359;50.932;6.924;2024-03-22T06:00:25;27.43;;;10.00;;
18459;SDS011;9359;50.932;6.924;2024-03-22T06:02:56;23.10;;;8.13;;
18459;SDS011;9359;50.932;6.924;2024-03-22T06:05:24;25.53;;;8.83;;
18459;SDS011;9359;50.932;6.924;2024-03-22T06:07:53;28.43;;;10.33;;
18459;SDS011;9359;50.932;6.924;2024-03-22T06:10:22;29.07;;;9.60;;
18459;SDS011;9359;50.932;6.924;2024-03-22T06:12:52;29.83;;;7.60;;
18459;SDS011;9359;50.932;6.924;2024-03-22T06:15:19;23.77;;;7.60;;
18459;SDS011;9359;50.932;6.924;2024-03-22T06:17:48;22.13;;;7.37;;
18459;SDS011;9359;50.932;6.924;2024-03-22T06:20:16;44.53;;;10.40;;
18459;SDS011;9359;50.932;6.924;2024-03-22T06:22:44;22.47;;;9.07;;
18459;SDS011;9359;50.932;6.924;2024-03-22T06:25:12;37.97;;;12.17;;
18459;SDS011;9359;50.932;6.924;2024-03-22T06:27:42;45.07;;;13.50;;
18459;SDS011;9359;50.932;6.924;2024-03-22T06:30:10;32.60;;;12.57;;
18459;SDS011;9359;50.932;6.924;2024-03-22T06:32:39;34.03;;;12.07;;
18459;SDS011;9359;50.932;6.924;2024-03-22T06:35:07;42.67;;;13.47;;
18459;SDS011;9359;50.932;6.924;2024-03-22T06:37:37;26.93;;;9.63;;
18459;SDS011;9359;50.932;6.924;2024-03-22T06:40:07;31.70;;;8.20;;
18459;SDS011;9359;50.932;6.924;2024-03-22T06:42:37;25.47;;;7.47;;
18459;SDS011;9359;50.932;6.924;2024-03-22T06:45:07;22.63;;;8.10;;
18459;SDS011;9359;50.932;6.924;2024-03-22T06:47:36;32.93;;;9.47;;
18459;SDS011;9359;50.932;6.924;2024-03-22T06:50:04;32.20;;;9.07;;
18459;SDS011;9359;50.932;6.924;2024-03-22T06:52:33;19.33;;;7.73;;
18459;SDS011;9359;50.932;6.924;2024-03-22T06:55:01;25.07;;;7.87;;
18459;SDS011;9359;50.932;6.924;2024-03-22T06:57:31;13.57;;;7.43;;
18459;SDS011;9359;50.932;6.924;2024-03-22T06:59:59;24.00;;;7.57;;
18459;SDS011;9359;50.932;6.924;2024-03-22T07:02:30;24.13;;;8.70;;
18459;SDS011;9359;50.932;6.924;2024-03-22T07:04:58;23.80;;;7.20;;
18459;SDS011;9359;50.932;6.924;2024-03-22T07:07:27;24.97;;;8.07;;
18459;SDS011;9359;50.932;6.924;2024-03-22T07:09:54;26.77;;;7.53;;
18459;SDS011;9359;50.932;6.924;2024-03-22T07:12:25;21.27;;;8.00;;
18459;SDS011;9359;50.932;6.924;2024-03-22T07:14:52;19.20;;;7.97;;
18459;SDS011;9359;50.932;6.924;2024-03-22T07:17:21;23.23;;;8.80;;
18459;SDS011;9359;50.932;6.924;2024-03-22T07:19:52;23.43;;;8.63;;
18459;SDS011;9359;50.932;6.924;2024-03-22T07:22:21;20.23;;;7.77;;
18459;SDS011;9359;50.932;6.924;2024-03-22T07:24:49;24.37;;;8.20;;
18459;SDS011;9359;50.932;6.924;2024-03-22T07:27:18;20.40;;;7.50;;
18459;SDS011;9359;50.932;6.924;2024-03-22T07:29:46;25.10;;;8.63;;
18459;SDS011;9359;50.932;6.924;2024-03-22T07:32:15;33.83;;;8.60;;
18459;SDS011;9359;50.932;6.924;2024-03-22T07:34:45;25.97;;;7.83;;
18459;SDS011;9359;50.932;6.924;2024-03-22T07:37:16;19.27;;;9.13;;
18459;SDS011;9359;50.932;6.924;2024-03-22T07:39:44;43.70;;;10.70;;
18459;SDS011;9359;50.932;6.924;2024-03-22T07:42:12;309.73;;;17.47;;
18459;SDS011;9359;50.932;6.924;2024-03-22T07:44:40;154.03;;;14.67;;
18459;SDS011;9359;50.932;6.924;2024-03-22T07:47:09;78.37;;;12.03;;
18459;SDS011;9359;50.932;6.924;2024-03-22T07:49:37;86.00;;;16.70;;
18459;SDS011;9359;50.932;6.924;2024-03-22T07:52:06;87.33;;;16.27;;
18459;SDS011;9359;50.932;6.924;2024-03-22T07:54:35;54.07;;;15.90;;
18459;SDS011;9359;50.932;6.924;2024-03-22T07:57:04;54.93;;;16.20;;
18459;SDS011;9359;50.932;6.924;2024-03-22T07:59:32;49.00;;;15.97;;
18459;SDS011;9359;50.932;6.924;2024-03-22T08:02:01;48.60;;;14.77;;
18459;SDS011;9359;50.932;6.924;2024-03-22T08:04:29;41.60;;;14.13;;
18459;SDS011;9359;50.932;6.924;2024-03-22T08:06:58;47.00;;;13.17;;
18459;SDS011;9359;50.932;6.924;2024-03-22T08:09:25;45.13;;;13.93;;
18459;SDS011;9359;50.932;6.924;2024-03-22T08:11:56;36.43;;;12.87;;
18459;SDS011;9359;50.932;6.924;2024-03-22T08:14:24;28.87;;;11.37;;
18459;SDS011;9359;50.932;6.924;2024-03-22T08:16:54;30.30;;;11.77;;
18459;SDS011;9359;50.932;6.924;2024-03-22T08:19:22;28.80;;;10.83;;
18459;SDS011;9359;50.932;6.924;2024-03-22T08:21:51;30.23;;;10.93;;
18459;SDS011;9359;50.932;6.924;2024-03-22T08:24:18;23.40;;;10.43;;
18459;SDS011;9359;50.932;6.924;2024-03-22T08:26:47;28.90;;;11.07;;
18459;SDS011;9359;50.932;6.924;2024-03-22T08:29:16;28.07;;;10.17;;
18459;SDS011;9359;50.932;6.924;2024-03-22T08:31:45;32.23;;;10.83;;
18459;SDS011;9359;50.932;6.924;2024-03-22T08:34:12;20.30;;;9.90;;
18459;SDS011;9359;50.932;6.924;2024-03-22T08:36:41;28.10;;;9.50;;
18459;SDS011;9359;50.932;6.924;2024-03-22T08:39:09;26.07;;;8.77;;
18459;SDS011;9359;50.932;6.924;2024-03-22T08:41:37;30.43;;;9.47;;
18459;SDS011;9359;50.932;6.924;2024-03-22T08:44:05;29.47;;;9.20;;
18459;SDS011;9359;50.932;6.924;2024-03-22T08:46:35;24.63;;;9.20;;
18459;SDS011;9359;50.932;6.924;2024-03-22T08:49:03;22.10;;;9.37;;
18459;SDS011;9359;50.932;6.924;2024-03-22T08:51:31;24.13;;;9.40;;
18459;SDS011;9359;50.932;6.924;2024-03-22T08:53:59;18.77;;;9.23;;
18459;SDS011;9359;50.932;6.924;2024-03-22T08:56:29;18.10;;;8.77;;
18459;SDS011;9359;50.932;6.924;2024-03-22T08:58:57;30.57;;;10.90;;
18459;SDS011;9359;50.932;6.924;2024-03-22T09:01:26;29.87;;;12.10;;
18459;SDS011;9359;50.932;6.924;2024-03-22T09:03:56;34.67;;;12.70;;
18459;SDS011;9359;50.932;6.924;2024-03-22T09:06:25;40.93;;;12.83;;
18459;SDS011;9359;50.932;6.924;2024-03-22T09:08:53;29.20;;;12.97;;
18459;SDS011;9359;50.932;6.924;2024-03-22T09:11:23;36.33;;;16.17;;
18459;SDS011;9359;50.932;6.924;2024-03-22T09:13:51;35.97;;;14.50;;
18459;SDS011;9359;50.932;6.924;2024-03-22T09:16:20;32.17;;;12.83;;
18459;SDS011;9359;50.932;6.924;2024-03-22T09:18:49;26.17;;;12.13;;
18459;SDS011;9359;50.932;6.924;2024-03-22T09:21:19;32.03;;;13.97;;
18459;SDS011;9359;50.932;6.924;2024-03-22T09:23:47;34.10;;;12.53;;
18459;SDS011;9359;50.932;6.924;2024-03-22T09:26:16;31.13;;;13.20;;
18459;SDS011;9359;50.932;6.924;2024-03-22T09:28:45;38.17;;;13.50;;
18459;SDS011;9359;50.932;6.924;2024-03-22T09:31:16;33.10;;;15.10;;
18459;SDS011;9359;50.932;6.924;2024-03-22T09:33:43;34.67;;;13.37;;
18459;SDS011;9359;50.932;6.924;2024-03-22T09:36:12;26.67;;;12.87;;
18459;SDS011;9359;50.932;6.924;2024-03-22T09:38:41;37.47;;;12.60;;
18459;SDS011;9359;50.932;6.924;2024-03-22T09:41:11;28.13;;;12.77;;
18459;SDS011;9359;50.932;6.924;2024-03-22T09:43:39;32.63;;;12.20;;
18459;SDS011;9359;50.932;6.924;2024-03-22T09:46:10;32.33;;;11.30;;
18459;SDS011;9359;50.932;6.924;2024-03-22T09:48:39;32.67;;;11.83;;
18459;SDS011;9359;50.932;6.924;2024-03-22T09:51:10;29.17;;;11.50;;
18459;SDS011;9359;50.932;6.924;2024-03-22T09:53:39;40.73;;;13.30;;
18459;SDS011;9359;50.932;6.924;2024-03-22T09:56:10;31.40;;;13.90;;
18459;SDS011;9359;50.932;6.924;2024-03-22T09:58:40;35.23;;;12.87;;
18459;SDS011;9359;50.932;6.924;2024-03-22T10:01:10;34.30;;;12.40;;
18459;SDS011;9359;50.932;6.924;2024-03-22T10:03:38;30.57;;;12.10;;
18459;SDS011;9359;50.932;6.924;2024-03-22T10:06:07;30.77;;;12.23;;
18459;SDS011;9359;50.932;6.924;2024-03-22T10:08:35;25.37;;;11.93;;
18459;SDS011;9359;50.932;6.924;2024-03-22T10:11:05;27.00;;;11.60;;
18459;SDS011;9359;50.932;6.924;2024-03-22T10:13:33;24.93;;;12.10;;
18459;SDS011;9359;50.932;6.924;2024-03-22T10:16:02;29.40;;;11.10;;
18459;SDS011;9359;50.932;6.924;2024-03-22T10:18:29;25.23;;;11.20;;
18459;SDS011;9359;50.932;6.924;2024-03-22T10:21:00;37.57;;;14.90;;
18459;SDS011;9359;50.932;6.924;2024-03-22T10:23:29;38.97;;;15.23;;
18459;SDS011;9359;50.932;6.924;2024-03-22T10:25:58;32.33;;;13.97;;
18459;SDS011;9359;50.932;6.924;2024-03-22T10:28:28;38.70;;;14.43;;
18459;SDS011;9359;50.932;6.924;2024-03-22T10:30:57;34.17;;;13.03;;
18459;SDS011;9359;50.932;6.924;2024-03-22T10:33:25;37.97;;;12.40;;
18459;SDS011;9359;50.932;6.924;2024-03-22T10:35:57;50.30;;;13.23;;
18459;SDS011;9359;50.932;6.924;2024-03-22T10:38:25;57.80;;;13.97;;
18459;SDS011;9359;50.932;6.924;2024-03-22T10:40:56;62.93;;;14.20;;
18459;SDS011;9359;50.932;6.924;2024-03-22T10:43:25;70.73;;;12.67;;
18459;SDS011;9359;50.932;6.924;2024-03-22T10:45:59;44.93;;;13.67;;
18459;SDS011;9359;50.932;6.924;2024-03-22T10:48:29;42.33;;;12.30;;
18459;SDS011;9359;50.932;6.924;2024-03-22T10:50:59;45.33;;;12.50;;
18459;SDS011;9359;50.932;6.924;2024-03-22T10:53:29;41.10;;;12.43;;
18459;SDS011;9359;50.932;6.924;2024-03-22T10:56:00;27.13;;;11.40;;
18459;SDS011;9359;50.932;6.924;2024-03-22T10:58:31;46.13;;;13.57;;
18459;SDS011;9359;50.932;6.924;2024-03-22T11:01:00;50.13;;;19.03;;
18459;SDS011;9359;50.932;6.924;2024-03-22T11:03:30;47.63;;;19.93;;
18459;SDS011;9359;50.932;6.924;2024-03-22T11:05:59;48.67;;;18.30;;
18459;SDS011;9359;50.932;6.924;2024-03-22T11:08:27;47.57;;;15.83;;
18459;SDS011;9359;50.932;6.924;2024-03-22T11:10:57;37.23;;;15.60;;
18459;SDS011;9359;50.932;6.924;2024-03-22T11:13:37;36.93;;;14.47;;
18459;SDS011;9359;50.932;6.924;2024-03-22T11:16:08;37.53;;;13.03;;
18459;SDS011;9359;50.932;6.924;2024-03-22T11:18:37;35.63;;;13.17;;
18459;SDS011;9359;50.932;6.924;2024-03-22T11:21:07;34.23;;;12.47;;
18459;SDS011;9359;50.932;6.924;2024-03-22T11:23:35;23.43;;;10.70;;
18459;SDS011;9359;50.932;6.924;2024-03-22T11:26:04;33.77;;;11.20;;
18459;SDS011;9359;50.932;6.924;2024-03-22T11:28:33;27.23;;;10.77;;
18459;SDS011;9359;50.932;6.924;2024-03-22T11:31:05;29.37;;;10.40;;
18459;SDS011;9359;50.932;6.924;2024-03-22T11:33:33;25.33;;;11.20;;
18459;SDS011;9359;50.932;6.924;2024-03-22T11:36:03;36.80;;;11.47;;
18459;SDS011;9359;50.932;6.924;2024-03-22T11:38:31;39.73;;;11.47;;
18459;SDS011;9359;50.932;6.924;2024-03-22T11:41:00;30.73;;;11.73;;
18459;SDS011;9359;50.932;6.924;2024-03-22T11:43:30;31.23;;;12.10;;
18459;SDS011;9359;50.932;6.924;2024-03-22T11:45:59;31.73;;;10.77;;
18459;SDS011;9359;50.932;6.924;2024-03-22T11:48:29;28.90;;;10.53;;
18459;SDS011;9359;50.932;6.924;2024-03-22T11:50:58;30.07;;;11.00;;
18459;SDS011;9359;50.932;6.924;2024-03-22T11:53:27;28.23;;;11.10;;
18459;SDS011;9359;50.932;6.924;2024-03-22T11:55:56;31.67;;;9.77;;
18459;SDS011;9359;50.932;6.924;2024-03-22T11:58:26;22.77;;;9.43;;
18459;SDS011;9359;50.932;6.924;2024-03-22T12:00:55;26.13;;;10.20;;
18459;SDS011;9359;50.932;6.924;2024-03-22T12:03:23;22.90;;;9.80;;
18459;SDS011;9359;50.932;6.924;2024-03-22T12:05:54;26.03;;;10.20;;
18459;SDS011;9359;50.932;6.924;2024-03-22T12:08:22;21.83;;;10.37;;
18459;SDS011;9359;50.932;6.924;2024-03-22T12:10:51;18.90;;;9.03;;
18459;SDS011;9359;50.932;6.924;2024-03-22T12:13:18;18.80;;;9.20;;
18459;SDS011;9359;50.932;6.924;2024-03-22T12:15:47;19.17;;;8.47;;
18459;SDS011;9359;50.932;6.924;2024-03-22T12:18:15;28.70;;;8.33;;
18459;SDS011;9359;50.932;6.924;2024-03-22T12:20:44;21.17;;;8.70;;
18459;SDS011;9359;50.932;6.924;2024-03-22T12:23:13;20.57;;;8.67;;
18459;SDS011;9359;50.932;6.924;2024-03-22T12:25:42;24.03;;;7.93;;
18459;SDS011;9359;50.932;6.924;2024-03-22T12:28:10;19.83;;;8.40;;
18459;SDS011;9359;50.932;6.924;2024-03-22T12:30:40;16.83;;;7.57;;
18459;SDS011;9359;50.932;6.924;2024-03-22T12:33:08;19.37;;;7.63;;
18459;SDS011;9359;50.932;6.924;2024-03-22T12:38:05;19.43;;;7.17;;
18459;SDS011;9359;50.932;6.924;2024-03-22T12:40:37;16.07;;;7.00;;
18459;SDS011;9359;50.932;6.924;2024-03-22T12:43:05;17.77;;;7.53;;
18459;SDS011;9359;50.932;6.924;2024-03-22T12:45:36;19.63;;;7.10;;
18459;SDS011;9359;50.932;6.924;2024-03-22T12:48:05;14.40;;;6.30;;
18459;SDS011;9359;50.932;6.924;2024-03-22T12:50:34;13.23;;;6.20;;
18459;SDS011;9359;50.932;6.924;2024-03-22T12:53:03;14.70;;;6.37;;
18459;SDS011;9359;50.932;6.924;2024-03-22T12:55:33;13.73;;;6.03;;
18459;SDS011;9359;50.932;6.924;2024-03-22T12:58:02;13.57;;;7.37;;
18459;SDS011;9359;50.932;6.924;2024-03-22T13:00:33;16.83;;;7.17;;
18459;SDS011;9359;50.932;6.924;2024-03-22T13:03:01;14.67;;;6.70;;
18459;SDS011;9359;50.932;6.924;2024-03-22T13:05:31;22.87;;;8.83;;
18459;SDS011;9359;50.932;6.924;2024-03-22T13:07:59;32.33;;;10.17;;
18459;SDS011;9359;50.932;6.924;2024-03-22T13:10:28;29.93;;;11.90;;
18459;SDS011;9359;50.932;6.924;2024-03-22T13:12:55;20.70;;;9.57;;
18459;SDS011;9359;50.932;6.924;2024-03-22T13:15:26;35.80;;;12.80;;
18459;SDS011;9359;50.932;6.924;2024-03-22T13:17:58;45.57;;;13.47;;
18459;SDS011;9359;50.932;6.924;2024-03-22T13:20:27;42.10;;;12.53;;
18459;SDS011;9359;50.932;6.924;2024-03-22T13:22:55;34.37;;;13.27;;
18459;SDS011;9359;50.932;6.924;2024-03-22T13:25:24;38.93;;;12.40;;
18459;SDS011;9359;50.932;6.924;2024-03-22T13:27:52;44.37;;;13.77;;
18459;SDS011;9359;50.932;6.924;2024-03-22T13:30:21;29.83;;;11.80;;
18459;SDS011;9359;50.932;6.924;2024-03-22T13:32:50;27.20;;;10.80;;
18459;SDS011;9359;50.932;6.924;2024-03-22T13:35:20;28.37;;;10.60;;
18459;SDS011;9359;50.932;6.924;2024-03-22T13:37:47;28.63;;;10.50;;
18459;SDS011;9359;50.932;6.924;2024-03-22T13:40:16;24.17;;;10.03;;
18459;SDS011;9359;50.932;6.924;2024-03-22T13:42:44;20.37;;;8.97;;
18459;SDS011;9359;50.932;6.924;2024-03-22T13:45:12;31.00;;;9.00;;
18459;SDS011;9359;50.932;6.924;2024-03-22T13:47:40;24.00;;;8.53;;
18459;SDS011;9359;50.932;6.924;2024-03-22T13:50:10;23.63;;;9.07;;
18459;SDS011;9359;50.932;6.924;2024-03-22T13:52:38;20.67;;;8.57;;
18459;SDS011;9359;50.932;6.924;2024-03-22T13:55:08;22.17;;;8.40;;
18459;SDS011;9359;50.932;6.924;2024-03-22T13:57:35;25.77;;;9.97;;
18459;SDS011;9359;50.932;6.924;2024-03-22T14:00:05;22.37;;;8.43;;
18459;SDS011;9359;50.932;6.924;2024-03-22T14:02:37;21.87;;;6.07;;
18459;SDS011;9359;50.932;6.924;2024-03-22T14:05:06;22.57;;;7.27;;
18459;SDS011;9359;50.932;6.924;2024-03-22T14:07:36;19.27;;;7.10;;
18459;SDS011;9359;50.932;6.924;2024-03-22T14:10:07;17.90;;;6.97;;
18459;SDS011;9359;50.932;6.924;2024-03-22T14:12:35;24.50;;;7.83;;
18459;SDS011;9359;50.932;6.924;2024-03-22T14:15:04;20.10;;;7.50;;
18459;SDS011;9359;50.932;6.924;2024-03-22T14:17:33;25.93;;;8.50;;
18459;SDS011;9359;50.932;6.924;2024-03-22T14:20:02;20.63;;;7.33;;
18459;SDS011;9359;50.932;6.924;2024-03-22T14:22:37;19.87;;;6.33;;
18459;SDS011;9359;50.932;6.924;2024-03-22T14:25:07;13.03;;;6.17;;
18459;SDS011;9359;50.932;6.924;2024-03-22T14:27:36;15.43;;;6.03;;
18459;SDS011;9359;50.932;6.924;2024-03-22T14:30:08;13.57;;;5.90;;
18459;SDS011;9359;50.932;6.924;2024-03-22T14:32:39;15.10;;;6.33;;
18459;SDS011;9359;50.932;6.924;2024-03-22T14:35:08;20.27;;;5.27;;
18459;SDS011;9359;50.932;6.924;2024-03-22T14:37:39;13.27;;;5.70;;
18459;SDS011;9359;50.932;6.924;2024-03-22T14:40:09;10.67;;;5.03;;
18459;SDS011;9359;50.932;6.924;2024-03-22T14:42:37;16.40;;;5.20;;
18459;SDS011;9359;50.932;6.924;2024-03-22T14:45:09;14.97;;;5.43;;
18459;SDS011;9359;50.932;6.924;2024-03-22T14:47:37;12.47;;;5.77;;
18459;SDS011;9359;50.932;6.924;2024-03-22T14:50:08;15.47;;;5.23;;
18459;SDS011;9359;50.932;6.924;2024-03-22T14:52:39;18.87;;;5.70;;